Time;durP1;ratioP1;P1;durP2;ratioP2;P2;SDS_P1;SDS_P2;PMS_P1;PMS_P2;Temp;Humidity;BMP_temperature;BMP_pressure;BME280_temperature;BME280_humidity;BME280_pressure;Samples;Min_cycle;Max_cycle;Signal;HPM_P1;HPM_P2
2023/10/16 00:07:27;;;;;;;5.50;2.80;;;;;;;4.74;93.69;99317.29;437525;1254;139141;-68
2023/10/16 00:17:33;;;;;;;2.70;2.10;;;;;;;4.84;93.41;99317.75;437581;1256;138439;-68
2023/10/16 00:27:39;;;;;;;3.70;1.70;;;;;;;4.90;93.12;99321.44;434997;1254;138237;-68
2023/10/16 00:37:45;;;;;;;3.70;2.20;;;;;;;4.96;93.08;99324.45;434733;1258;139717;-68
2023/10/16 00:47:52;;;;;;;2.40;1.70;;;;;;;5.01;93.01;99326.51;434748;1258;139365;-68
2023/10/16 00:58:00;;;;;;;2.60;1.60;;;;;;;5.02;92.69;99319.86;435450;1254;138383;-69
2023/10/16 01:08:08;;;;;;;1.90;1.50;;;;;;;5.03;92.58;99324.67;434977;1254;138872;-70
2023/10/16 01:18:15;;;;;;;4.30;1.70;;;;;;;5.03;92.61;99327.80;437522;1255;138948;-69
2023/10/16 01:28:22;;;;;;;3.30;2.10;;;;;;;5.02;92.67;99337.05;438231;1255;139889;-68
2023/10/16 01:38:27;;;;;;;2.40;1.90;;;;;;;5.00;92.59;99343.53;434841;1256;138715;-69
2023/10/16 01:48:33;;;;;;;5.50;1.50;;;;;;;5.00;92.66;99343.90;437487;1255;139583;-68
2023/10/16 01:58:41;;;;;;;5.30;1.40;;;;;;;5.02;92.67;99346.21;435236;1256;139462;-69
2023/10/16 02:08:50;;;;;;;5.40;2.00;;;;;;;5.07;92.81;99347.58;435823;1258;138407;-68
2023/10/16 02:18:57;;;;;;;2.10;1.70;;;;;;;5.09;92.90;99357.22;435232;1258;139122;-68
2023/10/16 02:29:04;;;;;;;3.70;1.40;;;;;;;5.11;92.79;99365.26;434571;1256;138502;-70
2023/10/16 02:39:27;;;;;;;6.40;2.60;;;;;;;5.13;92.71;99369.37;437673;1256;138420;-68
2023/10/16 02:49:33;;;;;;;3.20;2.10;;;;;;;5.16;92.69;99385.38;435022;1256;139138;-69
2023/10/16 02:59:39;;;;;;;3.40;1.70;;;;;;;5.15;92.67;99401.19;434649;1258;140419;-69
2023/10/16 03:09:46;;;;;;;3.20;2.40;;;;;;;5.14;92.74;99412.67;437532;1258;138551;-69
2023/10/16 03:19:55;;;;;;;4.10;2.10;;;;;;;5.15;92.97;99422.53;437405;1258;138364;-69
2023/10/16 03:30:01;;;;;;;5.60;2.10;;;;;;;5.13;92.80;99426.10;437275;1254;140076;-68
2023/10/16 03:40:12;;;;;;;5.70;2.50;;;;;;;5.09;92.95;99428.00;434759;1256;139399;-68
2023/10/16 03:50:24;;;;;;;5.00;2.30;;;;;;;5.10;93.05;99442.18;435113;1258;139013;-71
2023/10/16 04:00:43;;;;;;;6.10;2.10;;;;;;;5.13;93.39;99439.64;437127;1256;138653;-69
2023/10/16 04:10:53;;;;;;;3.70;1.90;;;;;;;5.17;93.10;99443.98;438143;1255;139022;-69
2023/10/16 04:31:44;;;;;;;6.10;2.60;;;;;;;5.13;93.16;99440.32;435070;1258;138675;-69
2023/10/16 04:52:35;;;;;;;2.70;1.50;;;;;;;5.18;93.11;99442.19;434712;1258;138521;-69
2023/10/16 05:02:41;;;;;;;2.90;1.30;;;;;;;5.18;93.10;99447.55;437679;1258;138816;-69
2023/10/16 06:15:20;;;;;;;4.50;2.30;;;;;;;5.57;91.47;99506.96;434887;1258;138437;-68
2023/10/16 06:25:29;;;;;;;5.50;2.30;;;;;;;5.61;91.40;99514.95;434599;1256;139193;-69
2023/10/16 06:35:36;;;;;;;2.30;1.90;;;;;;;5.65;91.32;99520.14;435854;1256;138749;-65
2023/10/16 06:45:54;;;;;;;2.70;2.10;;;;;;;5.75;91.19;99529.96;435417;1258;138771;-65
2023/10/16 06:56:00;;;;;;;4.00;2.00;;;;;;;5.84;91.18;99537.02;434748;1256;188607;-70
2023/10/16 07:06:07;;;;;;;3.00;1.90;;;;;;;5.86;91.12;99538.84;435653;1254;139154;-64
2023/10/16 07:16:15;;;;;;;6.30;2.60;;;;;;;5.84;91.24;99543.66;434612;1254;139043;-66
2023/10/16 07:26:24;;;;;;;5.60;2.80;;;;;;;5.79;91.22;99552.20;434656;1256;138655;-64
2023/10/16 07:36:31;;;;;;;3.30;1.90;;;;;;;5.87;91.28;99561.71;435126;1257;138487;-66
2023/10/16 07:46:38;;;;;;;2.60;1.80;;;;;;;5.97;90.85;99571.06;435025;1254;138712;-66
2023/10/16 07:56:45;;;;;;;3.00;1.40;;;;;;;6.08;90.20;99576.66;434955;1258;138404;-63
2023/10/16 08:06:53;;;;;;;3.60;1.80;;;;;;;6.27;89.60;99580.84;435306;1255;139372;-64
2023/10/16 08:17:04;;;;;;;3.40;2.20;;;;;;;6.39;88.91;99583.77;434576;1255;139021;-64
2023/10/16 08:27:19;;;;;;;3.90;2.90;;;;;;;6.38;88.34;99591.25;435170;1258;138449;-64
2023/10/16 08:37:25;;;;;;;4.10;2.40;;;;;;;6.32;88.13;99603.00;436701;1257;138424;-67
2023/10/16 08:47:46;;;;;;;4.70;2.60;;;;;;;6.46;88.10;99615.61;436272;1257;138835;-65
2023/10/16 08:57:53;;;;;;;6.30;3.00;;;;;;;6.73;87.45;99616.09;436109;1257;138486;-64
2023/10/16 09:07:59;;;;;;;2.40;2.20;;;;;;;6.75;87.09;99623.96;435463;1256;138811;-65
2023/10/16 09:18:09;;;;;;;4.20;3.00;;;;;;;6.89;86.51;99626.48;435230;1258;138495;-66
2023/10/16 09:28:18;;;;;;;5.30;3.20;;;;;;;6.83;86.06;99623.41;435672;1259;138509;-64
2023/10/16 09:38:32;;;;;;;5.30;2.80;;;;;;;6.89;86.32;99625.23;435362;1259;138489;-64
2023/10/16 09:48:39;;;;;;;4.70;2.80;;;;;;;7.26;86.35;99633.20;435786;1255;138343;-64
2023/10/16 09:58:51;;;;;;;4.90;3.30;;;;;;;7.61;85.48;99632.37;435833;1257;138404;-65
2023/10/16 10:19:32;;;;;;;3.90;2.50;;;;;;;8.04;84.07;99634.14;435125;1260;138494;-64
2023/10/16 10:29:44;;;;;;;5.40;2.60;;;;;;;8.34;83.17;99630.30;435353;1258;138395;-65
2023/10/16 10:39:50;;;;;;;6.40;3.10;;;;;;;8.96;82.60;99623.09;435566;1259;138405;-65
2023/10/16 10:49:59;;;;;;;3.40;2.40;;;;;;;9.53;81.00;99613.52;435903;1257;139362;-65
2023/10/16 11:10:27;;;;;;;5.00;2.60;;;;;;;9.52;78.17;99605.91;435321;1257;138726;-65
2023/10/16 11:20:36;;;;;;;2.50;2.10;;;;;;;9.40;77.72;99609.94;435143;1258;138687;-65
2023/10/16 11:30:42;;;;;;;5.10;2.30;;;;;;;9.53;77.42;99608.66;435645;1258;139453;-64
2023/10/16 11:40:50;;;;;;;6.60;3.20;;;;;;;9.76;76.60;99599.38;435682;1257;139070;-65
2023/10/16 11:51:05;;;;;;;;;;;;;;;9.57;75.34;99604.34;435789;1254;138693;-65
2023/10/16 12:01:12;;;;;;;6.80;2.90;;;;;;;9.33;75.50;99604.56;435989;1254;126064;-65
2023/10/16 12:11:38;;;;;;;7.00;3.50;;;;;;;9.22;75.50;99603.94;435198;1257;139533;-64
2023/10/16 12:21:47;;;;;;;6.40;2.70;;;;;;;9.23;75.33;99605.80;435515;1254;138897;-64
2023/10/16 12:31:55;;;;;;;6.80;3.30;;;;;;;9.24;74.94;99601.39;435583;1257;139101;-66
2023/10/16 12:42:01;;;;;;;4.00;2.20;;;;;;;9.11;74.65;99602.13;435526;1254;138753;-64
2023/10/16 12:52:10;;;;;;;5.50;2.40;;;;;;;9.08;74.80;99606.73;435949;1254;138553;-64
2023/10/16 13:02:24;;;;;;;6.70;2.50;;;;;;;9.04;74.98;99608.86;435590;1254;139294;-65
2023/10/16 13:12:31;;;;;;;9.70;2.10;;;;;;;9.06;74.78;99610.80;435128;1254;138839;-64
2023/10/16 13:22:37;;;;;;;7.70;1.20;;;;;;;8.92;74.38;99609.54;435267;1257;139215;-62
2023/10/16 13:32:46;;;;;;;7.80;2.60;;;;;;;8.85;74.63;99609.23;435061;1257;138913;-69
2023/10/16 13:42:54;;;;;;;7.40;2.90;;;;;;;9.00;74.56;99611.88;435187;1257;140322;-69
2023/10/16 13:53:04;;;;;;;3.20;1.50;;;;;;;8.93;74.40;99616.98;435946;1254;139542;-70
2023/10/16 14:03:17;;;;;;;2.90;1.20;;;;;;;8.81;73.82;99620.63;435579;1257;138512;-68
2023/10/16 14:13:26;;;;;;;9.80;2.40;;;;;;;8.71;73.90;99623.11;436192;1254;138559;-69
2023/10/16 14:23:33;;;;;;;11.00;2.70;;;;;;;8.82;73.79;99626.67;435368;1254;138504;-68
2023/10/16 14:33:39;;;;;;;3.90;1.60;;;;;;;8.87;73.42;99631.46;435323;1257;138687;-62
2023/10/16 14:43:46;;;;;;;5.20;2.30;;;;;;;8.78;73.33;99630.89;435230;1254;139549;-62
2023/10/16 14:53:55;;;;;;;6.00;2.00;;;;;;;8.64;73.35;99637.25;435517;1257;138641;-63
2023/10/16 15:04:04;;;;;;;6.40;3.10;;;;;;;8.46;73.73;99643.43;435239;1254;138452;-62
2023/10/16 15:14:12;;;;;;;7.50;2.50;;;;;;;8.27;74.23;99645.98;435645;1257;138770;-62
2023/10/16 15:24:18;;;;;;;4.10;2.70;;;;;;;8.03;74.43;99654.38;435347;1257;138727;-62
2023/10/16 15:34:24;;;;;;;8.00;2.80;;;;;;;7.88;74.69;99663.72;435453;1254;138328;-62
2023/10/16 15:44:30;;;;;;;8.40;3.40;;;;;;;7.70;74.88;99672.16;435213;1254;138895;-62
2023/10/16 15:54:36;;;;;;;7.30;3.30;;;;;;;7.49;75.12;99680.13;436655;1254;138335;-62
2023/10/16 16:04:44;;;;;;;4.40;2.90;;;;;;;7.25;75.55;99688.94;435619;1257;138319;-61
2023/10/16 16:14:52;;;;;;;6.30;3.80;;;;;;;6.93;75.88;99700.59;435949;1257;138264;-62
2023/10/16 16:24:58;;;;;;;4.00;2.80;;;;;;;6.51;76.73;99713.63;435764;1257;138350;-59
2023/10/16 16:35:05;;;;;;;6.80;2.90;;;;;;;6.20;77.63;99717.25;434814;1254;138327;-60
2023/10/16 16:45:13;;;;;;;7.00;5.30;;;;;;;6.06;78.67;99729.84;435477;1257;139312;-60
2023/10/16 16:55:17;;;;;;;;;;;;;;;5.99;79.30;99743.13;435179;1254;138456;-59
2023/10/16 17:05:24;;;;;;;8.70;7.00;;;;;;;5.97;80.15;99744.96;435321;1254;125186;-65
2023/10/16 17:15:33;;;;;;;14.30;6.10;;;;;;;5.95;80.60;99754.06;436173;1254;138447;-62
2023/10/16 17:25:40;;;;;;;10.80;5.80;;;;;;;5.76;80.76;99763.36;435892;1254;139026;-63
2023/10/16 17:35:47;;;;;;;7.50;4.90;;;;;;;5.60;81.36;99770.09;435395;1254;140038;-63
2023/10/16 17:45:53;;;;;;;10.90;6.80;;;;;;;5.52;81.69;99777.88;435559;1255;142830;-63
2023/10/16 17:55:59;;;;;;;13.00;6.70;;;;;;;5.25;81.91;99783.64;435220;1254;138938;-62
2023/10/16 18:06:07;;;;;;;20.50;11.90;;;;;;;4.84;82.45;99790.35;434959;1254;138631;-62
2023/10/16 18:16:14;;;;;;;23.90;11.00;;;;;;;4.40;82.92;99787.26;435526;1254;138614;-63
2023/10/16 18:26:20;;;;;;;26.30;12.00;;;;;;;4.03;83.90;99793.36;435514;1256;138654;-62
2023/10/16 18:36:26;;;;;;;21.40;11.80;;;;;;;3.82;85.08;99797.71;435080;1257;139803;-58
2023/10/16 18:46:32;;;;;;;25.90;12.10;;;;;;;3.85;85.94;99806.63;435287;1254;138620;-60
2023/10/16 18:56:39;;;;;;;40.10;18.30;;;;;;;3.92;86.57;99817.64;435217;1254;139795;-61
2023/10/16 19:06:45;;;;;;;29.60;15.50;;;;;;;3.98;86.84;99826.09;435460;1257;138798;-61
2023/10/16 19:16:54;;;;;;;20.20;10.30;;;;;;;4.08;87.38;99837.05;435773;1254;138615;-60
2023/10/16 19:27:01;;;;;;;25.50;13.90;;;;;;;4.19;87.98;99850.04;435982;1257;138839;-62
2023/10/16 19:37:07;;;;;;;10.80;5.50;;;;;;;4.30;88.01;99854.33;435231;1256;139334;-61
2023/10/16 19:47:13;;;;;;;11.50;7.10;;;;;;;4.40;87.93;99861.11;435134;1254;139256;-61
2023/10/16 19:57:20;;;;;;;8.40;5.50;;;;;;;4.47;88.23;99873.16;435790;1254;139158;-61
2023/10/16 20:07:26;;;;;;;11.90;5.90;;;;;;;4.53;88.62;99884.93;435340;1254;139301;-60
2023/10/16 20:17:32;;;;;;;13.40;7.50;;;;;;;4.59;88.69;99891.83;435712;1257;139100;-60
2023/10/16 20:27:38;;;;;;;9.60;6.00;;;;;;;4.64;88.68;99902.41;435177;1257;138492;-63
2023/10/16 20:37:45;;;;;;;11.60;6.00;;;;;;;4.67;88.61;99908.02;435218;1254;139271;-61
2023/10/16 20:47:52;;;;;;;9.40;7.10;;;;;;;4.69;88.76;99913.19;435507;1254;139027;-61
2023/10/16 20:57:59;;;;;;;11.40;6.40;;;;;;;4.71;88.89;99920.75;435250;1257;138357;-60
2023/10/16 21:08:06;;;;;;;9.60;6.80;;;;;;;4.70;88.83;99922.52;435063;1254;139634;-60
2023/10/16 21:18:11;;;;;;;;;;;;;;;4.67;88.88;99927.31;436780;1254;138518;-61
2023/10/16 21:28:18;;;;;;;12.50;7.70;;;;;;;4.58;88.85;99931.05;435071;1254;125849;-61
2023/10/16 21:38:24;;;;;;;11.40;6.80;;;;;;;4.46;88.86;99932.67;435846;1255;139517;-61
2023/10/16 21:48:30;;;;;;;12.60;7.10;;;;;;;4.32;88.88;99931.39;435109;1255;138685;-61
2023/10/16 21:58:36;;;;;;;11.70;7.30;;;;;;;4.21;89.04;99935.05;435365;1256;138534;-62
2023/10/16 22:08:43;;;;;;;16.80;9.30;;;;;;;4.01;89.15;99934.63;435672;1257;138666;-61
2023/10/16 22:18:50;;;;;;;13.80;7.90;;;;;;;3.64;89.23;99941.64;435127;1257;138590;-61
2023/10/16 22:28:58;;;;;;;12.60;7.30;;;;;;;3.24;89.86;99942.94;435273;1254;138696;-61
2023/10/16 22:39:08;;;;;;;;;;;;;;;2.88;89.95;99944.95;435323;1256;139058;-61
2023/10/16 22:49:17;;;;;;;13.90;7.50;;;;;;;2.54;90.13;99952.21;436830;1257;125365;-60
2023/10/16 22:59:23;;;;;;;15.20;10.70;;;;;;;2.20;90.61;99958.37;435314;1254;138782;-61
2023/10/16 23:09:29;;;;;;;16.70;9.10;;;;;;;1.93;91.30;99960.55;435178;1256;138834;-60
2023/10/16 23:19:35;;;;;;;15.70;10.50;;;;;;;1.68;91.55;99957.98;435514;1256;139242;-62
2023/10/16 23:29:42;;;;;;;14.30;9.20;;;;;;;1.44;91.89;99956.58;435321;1256;139502;-60
2023/10/16 23:39:48;;;;;;;15.30;9.80;;;;;;;1.22;92.04;99957.02;435261;1257;138557;-61
2023/10/16 23:49:58;;;;;;;13.00;9.20;;;;;;;1.00;92.42;99962.08;435704;1258;139807;-61
